Time;durP1;ratioP1;P1;durP2;ratioP2;P2;SDS_P1;SDS_P2;PMS_P1;PMS_P2;Temp;Humidity;BMP_temperature;BMP_pressure;BME280_temperature;BME280_humidity;BME280_pressure;Samples;Min_cycle;Max_cycle;Signal;HPM_P1;HPM_P2
2021/12/06 00:00:28;;;;;;;20.77;13.75;;;2.60;99.90;;;;;;6155164;22;20028;-91
2021/12/06 00:02:56;;;;;;;23.70;15.02;;;2.60;99.90;;;;;;6155761;23;20062;-91
2021/12/06 00:05:25;;;;;;;20.77;14.82;;;3.70;99.90;;;;;;6155942;22;20021;-91
2021/12/06 00:07:51;;;;;;;22.40;14.60;;;4.00;99.90;;;;;;6286366;22;20024;-91
2021/12/06 00:10:17;;;;;;;24.42;15.63;;;6.70;99.90;;;;;;6155842;23;20017;-91
2021/12/06 00:12:43;;;;;;;24.77;14.40;;;5.80;99.90;;;;;;6155948;22;20024;-91
2021/12/06 00:15:10;;;;;;;27.73;16.45;;;4.70;99.90;;;;;;6155741;23;20737;-91
2021/12/06 00:17:36;;;;;;;23.67;15.95;;;5.40;99.90;;;;;;6180682;23;20113;-91
2021/12/06 00:20:06;;;;;;;24.42;16.05;;;5.10;99.90;;;;;;6155726;22;20021;-91
2021/12/06 00:22:32;;;;;;;20.42;12.63;;;4.50;99.90;;;;;;6155444;23;20092;-91
2021/12/06 00:24:58;;;;;;;17.48;10.52;;;5.30;99.90;;;;;;6155502;23;20104;-91
2021/12/06 00:27:24;;;;;;;22.35;12.90;;;3.30;99.90;;;;;;6155868;22;20336;-91
2021/12/06 00:29:50;;;;;;;24.15;14.65;;;3.00;99.90;;;;;;6168243;22;20036;-91
2021/12/06 00:32:17;;;;;;;22.40;14.95;;;5.50;99.90;;;;;;6131289;23;20086;-91
2021/12/06 00:34:43;;;;;;;26.00;15.35;;;2.80;99.90;;;;;;6155801;23;20074;-91
2021/12/06 00:37:28;;;;;;;27.38;17.05;;;7.60;99.90;;;;;;6131443;23;20013;-90
2021/12/06 00:39:58;;;;;;;25.98;17.73;;;5.60;99.90;;;;;;6155872;22;20017;-91
2021/12/06 00:42:27;;;;;;;29.50;18.42;;;4.60;99.90;;;;;;6155882;23;20082;-92
2021/12/06 00:44:53;;;;;;;25.90;17.48;;;2.40;99.90;;;;;;6155712;23;20088;-91
2021/12/06 00:47:19;;;;;;;26.73;17.25;;;3.60;99.90;;;;;;6155781;23;20104;-91
2021/12/06 00:49:46;;;;;;;25.13;15.93;;;5.90;99.90;;;;;;6155654;22;20017;-92
2021/12/06 00:52:13;;;;;;;23.50;15.75;;;6.40;99.90;;;;;;6180668;22;20508;-92
2021/12/06 00:54:39;;;;;;;24.48;16.38;;;4.60;99.90;;;;;;6180351;23;20055;-91
2021/12/06 00:57:07;;;;;;;24.52;15.85;;;4.90;99.90;;;;;;6131057;23;20021;-91
2021/12/06 00:59:33;;;;;;;26.60;16.48;;;3.10;99.90;;;;;;6154906;22;20021;-91
2021/12/06 01:02:00;;;;;;;26.80;16.27;;;3.50;99.90;;;;;;6179987;22;20017;-91
2021/12/06 01:04:29;;;;;;;24.55;16.42;;;5.70;99.90;;;;;;6131126;23;20035;-91
2021/12/06 01:06:55;;;;;;;26.88;16.25;;;2.50;99.90;;;;;;6180159;22;20021;-91
2021/12/06 01:09:21;;;;;;;26.25;17.20;;;5.20;99.90;;;;;;6131213;23;20066;-91
2021/12/06 01:11:46;;;;;;;28.42;16.88;;;7.00;99.90;;;;;;6130757;23;20071;-90
2021/12/06 01:14:12;;;;;;;26.83;16.25;;;5.30;99.90;;;;;;6130791;23;20044;-91
2021/12/06 01:16:38;;;;;;;27.73;16.83;;;2.50;99.90;;;;;;6130966;23;20067;-91
2021/12/06 01:19:05;;;;;;;29.52;17.75;;;5.40;99.90;;;;;;6155313;23;20013;-91
2021/12/06 01:21:45;;;;;;;28.05;17.45;;;6.40;99.90;;;;;;6155192;23;20049;-91
2021/12/06 01:24:12;;;;;;;25.38;15.98;;;3.70;99.90;;;;;;6130979;23;20013;-91
2021/12/06 01:27:03;;;;;;;28.27;17.40;;;3.60;99.90;;;;;;6180127;22;20399;-91
2021/12/06 01:39:53;;;;;;;24.77;16.30;;;4.90;99.90;;;;;;6179925;23;20021;-90
2021/12/06 01:42:19;;;;;;;22.15;14.60;;;4.10;99.90;;;;;;6179692;23;20096;-90
2021/12/06 01:44:49;;;;;;;25.60;16.65;;;6.10;99.90;;;;;;6179811;23;20469;-90
2021/12/06 01:47:17;;;;;;;24.55;16.55;;;4.50;99.90;;;;;;6179877;23;20017;-89
2021/12/06 01:49:46;;;;;;;29.30;18.30;;;0.70;99.90;;;;;;6179526;23;20052;-90
2021/12/06 01:52:18;;;;;;;26.17;17.35;;;4.50;99.90;;;;;;6179674;23;20048;-90
2021/12/06 01:54:44;;;;;;;26.58;16.50;;;6.80;99.90;;;;;;6179518;23;20023;-90
2021/12/06 01:57:10;;;;;;;26.30;16.52;;;0.40;99.90;;;;;;6179796;23;20013;-90
2021/12/06 01:59:36;;;;;;;33.92;18.38;;;1.70;99.90;;;;;;6179557;23;20038;-90
2021/12/06 02:02:02;;;;;;;26.92;17.38;;;1.70;99.90;;;;;;6179572;23;20037;-90
2021/12/06 02:04:30;;;;;;;29.13;18.23;;;0.90;99.90;;;;;;6179547;23;20017;-89
2021/12/06 02:06:58;;;;;;;28.15;17.10;;;3.40;99.90;;;;;;6179871;23;20017;-90
2021/12/06 02:09:27;;;;;;;28.75;18.88;;;1.70;99.90;;;;;;6179636;23;20013;-89
2021/12/06 02:11:54;;;;;;;27.85;17.52;;;4.50;99.90;;;;;;6154863;23;20020;-90
2021/12/06 02:14:29;;;;;;;30.90;18.55;;;3.30;99.90;;;;;;6179427;23;20017;-90
2021/12/06 02:17:14;;;;;;;27.75;18.75;;;3.40;99.90;;;;;;6179381;23;20341;-89
2021/12/06 02:19:47;;;;;;;29.50;19.20;;;4.70;99.90;;;;;;6179765;23;20447;-89
2021/12/06 02:22:17;;;;;;;30.45;20.63;;;5.70;99.90;;;;;;6179110;23;20021;-90
2021/12/06 02:24:43;;;;;;;30.25;19.70;;;7.40;99.90;;;;;;6179688;23;20013;-89
2021/12/06 02:27:12;;;;;;;32.22;19.65;;;2.80;99.90;;;;;;6179268;23;20017;-90
2021/12/06 02:29:39;;;;;;;35.45;21.42;;;4.60;99.90;;;;;;6179332;23;20104;-90
2021/12/06 02:32:10;;;;;;;34.13;20.67;;;-0.80;99.90;;;;;;6179662;23;20355;-90
2021/12/06 02:34:38;;;;;;;35.00;21.73;;;4.80;99.90;;;;;;6179608;23;20119;-89
2021/12/06 02:37:05;;;;;;;36.80;20.30;;;3.00;99.90;;;;;;6179508;23;20396;-90
2021/12/06 02:39:31;;;;;;;32.80;20.77;;;7.30;99.90;;;;;;6179032;23;20374;-90
2021/12/06 02:41:58;;;;;;;33.28;20.83;;;2.50;99.90;;;;;;6179555;23;20082;-90
2021/12/06 02:44:24;;;;;;;34.95;21.52;;;5.50;99.90;;;;;;6179259;22;20059;-89
2021/12/06 02:46:50;;;;;;;32.85;20.80;;;1.30;99.90;;;;;;6179281;22;20021;-90
2021/12/06 02:49:16;;;;;;;35.97;21.40;;;3.90;99.90;;;;;;6179687;23;20324;-89
2021/12/06 02:51:42;;;;;;;33.40;21.60;;;6.40;99.90;;;;;;6179436;23;20068;-89
2021/12/06 02:54:10;;;;;;;35.08;22.75;;;3.70;99.90;;;;;;6179740;23;20097;-90
2021/12/06 02:57:06;;;;;;;35.25;22.50;;;3.80;99.90;;;;;;6179528;23;20320;-89
2021/12/06 02:59:34;;;;;;;33.08;21.33;;;4.90;99.90;;;;;;6179354;23;20100;-89
2021/12/06 03:02:04;;;;;;;34.38;21.40;;;6.90;99.90;;;;;;6179225;23;20411;-89
2021/12/06 03:04:30;;;;;;;36.95;21.58;;;6.30;99.90;;;;;;6179380;23;20009;-90
2021/12/06 03:06:58;;;;;;;36.22;22.35;;;4.90;99.90;;;;;;6179361;23;20320;-89
2021/12/06 03:09:29;;;;;;;39.50;22.35;;;7.10;99.90;;;;;;6179549;23;20458;-90
2021/12/06 03:11:59;;;;;;;34.97;21.20;;;4.60;99.90;;;;;;6179605;23;20359;-89
2021/12/06 03:14:29;;;;;;;35.15;22.23;;;2.00;99.90;;;;;;6179032;23;20328;-89
2021/12/06 03:16:57;;;;;;;38.25;22.90;;;4.70;99.90;;;;;;6179541;23;20028;-89
2021/12/06 03:19:24;;;;;;;36.03;22.05;;;1.30;99.90;;;;;;6179557;22;20063;-89
2021/12/06 03:21:50;;;;;;;36.78;22.33;;;3.60;99.90;;;;;;6179425;23;20044;-90
2021/12/06 03:24:17;;;;;;;42.42;24.75;;;2.80;99.90;;;;;;6179667;23;20020;-89
2021/12/06 03:26:43;;;;;;;39.50;22.40;;;4.10;99.90;;;;;;6179241;23;20393;-90
2021/12/06 03:29:09;;;;;;;36.95;23.85;;;2.70;99.90;;;;;;6183720;22;20075;-89
2021/12/06 03:31:36;;;;;;;38.03;23.80;;;4.10;99.90;;;;;;6159534;23;20020;-90
2021/12/06 03:34:07;;;;;;;36.58;24.30;;;4.70;99.90;;;;;;6184024;23;20353;-90
2021/12/06 03:36:35;;;;;;;37.88;24.00;;;6.80;99.90;;;;;;6184161;22;20020;-90
2021/12/06 03:39:06;;;;;;;41.35;25.15;;;5.00;99.90;;;;;;6183980;22;20032;-90
2021/12/06 03:41:31;;;;;;;40.38;24.02;;;6.40;99.90;;;;;;6184157;23;20021;-89
2021/12/06 03:43:59;;;;;;;42.50;25.17;;;5.20;99.90;;;;;;6183954;22;20013;-90
2021/12/06 03:46:29;;;;;;;45.35;24.70;;;6.60;99.90;;;;;;6183938;22;20459;-90
2021/12/06 03:48:55;;;;;;;39.00;23.85;;;7.00;99.90;;;;;;6183898;22;20366;-90
2021/12/06 03:51:21;;;;;;;36.22;23.48;;;3.90;99.90;;;;;;6183770;23;20025;-90
2021/12/06 03:53:46;;;;;;;35.30;22.77;;;6.00;99.90;;;;;;6183691;23;20121;-90
2021/12/06 03:56:13;;;;;;;36.75;23.63;;;4.50;99.90;;;;;;6184384;22;20021;-89
2021/12/06 03:58:39;;;;;;;39.50;24.40;;;4.40;99.90;;;;;;6183923;23;20012;-89
2021/12/06 04:01:06;;;;;;;36.42;22.92;;;6.20;99.90;;;;;;6184289;22;20021;-90
2021/12/06 04:03:35;;;;;;;38.45;23.25;;;4.20;99.90;;;;;;6183775;23;20013;-90
2021/12/06 04:06:03;;;;;;;38.90;23.10;;;7.60;99.90;;;;;;6184164;22;20109;-90
2021/12/06 04:08:29;;;;;;;41.67;23.08;;;1.40;99.90;;;;;;6184105;23;20016;-89
2021/12/06 04:10:55;;;;;;;39.70;23.90;;;5.70;99.90;;;;;;6184346;22;20060;-90
2021/12/06 04:13:22;;;;;;;37.83;23.20;;;4.40;99.90;;;;;;6183982;22;20099;-90
2021/12/06 04:15:48;;;;;;;41.97;26.20;;;7.20;99.90;;;;;;6184000;22;20405;-90
2021/12/06 04:18:14;;;;;;;43.70;25.40;;;4.90;99.90;;;;;;6183451;23;20021;-90
2021/12/06 04:20:41;;;;;;;44.60;27.08;;;5.20;99.90;;;;;;6289435;22;20081;-90
2021/12/06 04:23:10;;;;;;;44.78;26.17;;;5.90;99.90;;;;;;6183724;23;20017;-90
2021/12/06 04:25:36;;;;;;;40.85;25.23;;;5.70;99.90;;;;;;6184066;23;20013;-89
2021/12/06 04:28:06;;;;;;;48.55;26.63;;;4.70;99.90;;;;;;6183397;23;20020;-89
2021/12/06 04:30:34;;;;;;;44.00;24.70;;;4.90;99.90;;;;;;6183844;22;20021;-90
2021/12/06 04:33:01;;;;;;;47.63;25.58;;;2.90;99.90;;;;;;6159208;23;20357;-90
2021/12/06 04:35:28;;;;;;;48.40;25.13;;;3.70;99.90;;;;;;6183634;22;20017;-90
2021/12/06 04:37:57;;;;;;;49.35;26.42;;;6.30;99.90;;;;;;6183343;23;20069;-90
2021/12/06 04:40:23;;;;;;;44.00;24.77;;;5.70;99.90;;;;;;6183706;23;20439;-90
2021/12/06 04:42:48;;;;;;;49.42;27.88;;;3.00;99.90;;;;;;6183626;22;20031;-90
2021/12/06 04:45:15;;;;;;;47.92;26.58;;;5.80;99.90;;;;;;6183852;22;20016;-90
2021/12/06 04:47:42;;;;;;;53.58;27.70;;;4.40;99.90;;;;;;6184893;22;20020;-91
2021/12/06 04:50:09;;;;;;;48.50;26.23;;;8.50;99.90;;;;;;6185108;23;20048;-90
2021/12/06 04:52:36;;;;;;;48.17;26.45;;;3.20;99.90;;;;;;6185344;23;20104;-91
2021/12/06 04:55:08;;;;;;;57.75;29.25;;;4.90;99.90;;;;;;6185389;23;20028;-91
2021/12/06 04:57:39;;;;;;;59.95;28.75;;;6.40;99.90;;;;;;6185104;23;20069;-90
2021/12/06 05:00:18;;;;;;;53.05;27.10;;;4.80;99.90;;;;;;6185498;23;20094;-90
2021/12/06 05:02:47;;;;;;;54.03;27.55;;;2.40;99.90;;;;;;6185302;23;20093;-90
2021/12/06 05:05:21;;;;;;;54.67;27.52;;;6.40;99.90;;;;;;6185492;22;20134;-91
2021/12/06 05:07:53;;;;;;;57.67;27.60;;;6.60;99.90;;;;;;6185264;23;20122;-90
2021/12/06 05:10:20;;;;;;;47.45;24.70;;;3.10;99.90;;;;;;6185955;23;20052;-90
2021/12/06 05:12:46;;;;;;;59.15;30.23;;;7.30;99.90;;;;;;6185202;23;20292;-91
2021/12/06 05:15:13;;;;;;;58.60;28.65;;;4.30;99.90;;;;;;6185171;23;20052;-91
2021/12/06 05:17:40;;;;;;;54.85;26.65;;;8.10;99.90;;;;;;6185346;22;20027;-91
2021/12/06 05:20:07;;;;;;;58.08;27.80;;;5.80;99.90;;;;;;6184804;22;20016;-91
2021/12/06 05:22:34;;;;;;;63.83;31.10;;;7.10;99.90;;;;;;6185172;23;20020;-91
2021/12/06 05:25:00;;;;;;;57.88;28.02;;;1.60;99.90;;;;;;6184740;23;20016;-91
2021/12/06 05:27:29;;;;;;;58.35;29.23;;;8.20;99.90;;;;;;6185081;23;20090;-91
2021/12/06 05:29:59;;;;;;;65.03;30.40;;;6.70;99.90;;;;;;6184547;22;20024;-91
2021/12/06 05:32:27;;;;;;;68.05;31.65;;;8.60;99.90;;;;;;6185254;22;20097;-91
2021/12/06 05:35:02;;;;;;;54.38;28.83;;;7.00;99.90;;;;;;6185315;22;20009;-90
2021/12/06 05:37:28;;;;;;;62.65;29.40;;;3.10;99.90;;;;;;6185211;22;20170;-91
2021/12/06 05:39:55;;;;;;;63.50;30.80;;;2.10;99.90;;;;;;6185188;23;20154;-91
2021/12/06 05:42:22;;;;;;;61.33;30.30;;;7.60;99.90;;;;;;6185296;22;20021;-91
2021/12/06 05:44:49;;;;;;;69.22;30.92;;;2.80;99.90;;;;;;6184989;23;20319;-92
2021/12/06 05:47:15;;;;;;;62.75;30.20;;;6.00;99.90;;;;;;6185276;22;20056;-91
2021/12/06 05:49:42;;;;;;;57.80;28.35;;;5.00;99.90;;;;;;6185187;23;20095;-91
2021/12/06 05:52:07;;;;;;;50.35;24.27;;;6.60;99.90;;;;;;6185035;22;20017;-92
2021/12/06 05:54:34;;;;;;;50.20;23.35;;;4.10;99.90;;;;;;6185069;23;20439;-91
2021/12/06 05:57:00;;;;;;;50.53;25.48;;;2.50;99.90;;;;;;6184775;22;20046;-91
2021/12/06 05:59:27;;;;;;;41.80;20.27;;;5.00;99.90;;;;;;6184769;23;20105;-91
2021/12/06 06:01:54;;;;;;;44.22;21.60;;;8.40;99.90;;;;;;6185135;23;20343;-91
2021/12/06 06:04:21;;;;;;;45.22;22.10;;;9.50;99.90;;;;;;6185162;22;20016;-91
2021/12/06 06:06:49;;;;;;;33.00;16.98;;;9.50;99.90;;;;;;6184720;22;20096;-91
2021/12/06 06:09:16;;;;;;;34.50;18.33;;;1.70;99.90;;;;;;6185046;22;20025;-92
2021/12/06 06:11:42;;;;;;;40.00;18.70;;;8.70;99.90;;;;;;6185096;23;20402;-91
2021/12/06 06:14:08;;;;;;;42.67;18.15;;;7.30;99.90;;;;;;6185132;22;20017;-91
2021/12/06 06:16:45;;;;;;;29.80;14.23;;;7.50;99.90;;;;;;6185199;22;20017;-92
2021/12/06 06:19:11;;;;;;;37.65;18.50;;;7.00;99.90;;;;;;6184820;22;20020;-91
2021/12/06 06:21:37;;;;;;;33.50;16.67;;;7.30;99.90;;;;;;6184552;23;20017;-92
2021/12/06 06:24:03;;;;;;;35.15;17.10;;;4.80;99.90;;;;;;6185013;23;20024;-92
2021/12/06 06:26:29;;;;;;;45.13;22.10;;;3.90;99.90;;;;;;6184763;23;20066;-92
2021/12/06 06:28:55;;;;;;;32.15;16.85;;;7.20;99.90;;;;;;6184727;22;20012;-91
2021/12/06 06:31:21;;;;;;;39.88;18.77;;;2.40;99.90;;;;;;6160189;22;20020;-92
2021/12/06 06:33:46;;;;;;;44.30;20.20;;;5.50;99.90;;;;;;6184764;22;20023;-90
2021/12/06 06:36:15;;;;;;;44.13;21.38;;;4.40;99.90;;;;;;6185088;22;20024;-91
2021/12/06 06:38:40;;;;;;;38.42;18.20;;;9.50;99.90;;;;;;6184438;23;20084;-91
2021/12/06 06:41:07;;;;;;;35.33;17.70;;;6.20;99.90;;;;;;6184682;22;20070;-91
2021/12/06 06:43:35;;;;;;;35.55;18.25;;;7.40;99.90;;;;;;6185075;22;20028;-91
2021/12/06 06:46:02;;;;;;;44.67;21.67;;;4.70;99.90;;;;;;6184530;22;20058;-91
2021/12/06 06:48:28;;;;;;;43.55;21.50;;;5.50;99.90;;;;;;6290070;22;20012;-91
2021/12/06 06:50:53;;;;;;;42.55;20.30;;;5.90;99.90;;;;;;6184472;22;20019;-91
2021/12/06 06:53:19;;;;;;;39.17;18.35;;;7.50;99.90;;;;;;6184813;23;20021;-91
2021/12/06 06:55:45;;;;;;;46.88;20.30;;;6.40;99.90;;;;;;6184317;23;20009;-92
2021/12/06 06:58:14;;;;;;;52.35;22.55;;;5.20;99.90;;;;;;6184505;23;20448;-87
2021/12/06 07:00:41;;;;;;;38.33;19.17;;;4.40;99.90;;;;;;6184387;23;20028;-89
2021/12/06 07:03:09;;;;;;;33.58;17.25;;;4.60;99.90;;;;;;6183909;23;20103;-88
2021/12/06 07:05:35;;;;;;;39.67;18.50;;;6.90;99.90;;;;;;6184581;23;20021;-90
2021/12/06 07:08:01;;;;;;;27.60;13.95;;;4.50;99.90;;;;;;6159591;23;20043;-92
2021/12/06 07:10:27;;;;;;;33.17;16.10;;;7.10;99.90;;;;;;6185344;23;20395;-94
2021/12/06 07:12:55;;;;;;;32.20;17.27;;;7.50;99.90;;;;;;6186923;22;20012;-91
2021/12/06 07:15:26;;;;;;;39.45;19.55;;;3.10;99.90;;;;;;6184701;22;20020;-91
2021/12/06 07:17:52;;;;;;;31.52;16.05;;;5.50;99.90;;;;;;6185048;23;20061;-93
2021/12/06 07:20:19;;;;;;;29.73;15.70;;;9.60;99.90;;;;;;6186542;23;20020;-91
2021/12/06 07:22:47;;;;;;;38.20;20.75;;;5.70;99.90;;;;;;6186468;22;20438;-94
2021/12/06 07:25:15;;;;;;;32.60;16.50;;;7.70;99.90;;;;;;6187295;22;20012;-94
2021/12/06 07:27:42;;;;;;;33.72;17.42;;;3.30;99.90;;;;;;6187282;22;20053;-93
2021/12/06 07:30:10;;;;;;;36.45;17.88;;;2.60;99.90;;;;;;6180091;23;20088;-89
2021/12/06 07:32:36;;;;;;;40.78;19.42;;;2.20;99.90;;;;;;6159036;23;20067;-92
2021/12/06 07:35:04;;;;;;;45.63;20.88;;;2.90;99.90;;;;;;6180570;23;20335;-90
2021/12/06 07:37:33;;;;;;;34.25;17.40;;;5.90;99.90;;;;;;6179590;23;20010;-90
2021/12/06 07:40:00;;;;;;;38.25;18.35;;;9.40;99.90;;;;;;6179806;23;20013;-89
2021/12/06 07:42:26;;;;;;;28.25;14.27;;;7.70;99.90;;;;;;6179601;23;20017;-92
2021/12/06 07:44:54;;;;;;;36.28;18.70;;;2.70;99.90;;;;;;6179541;23;20351;-91
2021/12/06 07:47:23;;;;;;;37.38;19.73;;;3.20;99.90;;;;;;6180770;23;20096;-93
2021/12/06 07:49:49;;;;;;;34.80;19.58;;;6.70;99.90;;;;;;6154331;23;20093;-94
2021/12/06 07:52:15;;;;;;;41.60;18.80;;;4.40;99.90;;;;;;6180011;23;20166;-90
2021/12/06 07:54:43;;;;;;;35.08;17.92;;;5.20;99.90;;;;;;6178527;23;20426;-91
2021/12/06 07:57:10;;;;;;;38.25;17.77;;;6.60;99.90;;;;;;6179364;23;20017;-94
2021/12/06 07:59:38;;;;;;;40.72;18.50;;;6.90;99.90;;;;;;6178871;23;20344;-88
2021/12/06 08:02:06;;;;;;;39.40;18.48;;;3.70;99.90;;;;;;6179911;23;20088;-93
2021/12/06 08:04:35;;;;;;;38.85;18.77;;;4.80;99.90;;;;;;6179247;23;20052;-91
2021/12/06 08:07:03;;;;;;;36.10;18.23;;;3.40;99.90;;;;;;6179438;23;20104;-91
2021/12/06 08:09:29;;;;;;;52.35;23.40;;;4.70;99.90;;;;;;6179815;23;20013;-93
2021/12/06 08:11:55;;;;;;;44.15;18.13;;;9.50;99.90;;;;;;6179955;23;20064;-94
2021/12/06 08:14:27;;;;;;;39.20;16.83;;;5.00;99.90;;;;;;6285055;22;20021;-90
2021/12/06 08:17:03;;;;;;;38.10;17.83;;;5.60;99.90;;;;;;6179580;23;20017;-92
2021/12/06 08:19:53;;;;;;;40.05;18.10;;;5.50;99.90;;;;;;6202609;23;20021;-94
2021/12/06 08:22:22;;;;;;;39.15;15.60;;;7.40;99.90;;;;;;6180359;23;20013;-93
2021/12/06 08:25:03;;;;;;;34.33;16.88;;;1.70;99.90;;;;;;6182955;22;20092;-93
2021/12/06 08:27:29;;;;;;;46.08;20.85;;;6.90;99.90;;;;;;6181379;23;20021;-94
2021/12/06 08:30:22;;;;;;;44.08;19.60;;;6.20;99.90;;;;;;6184903;22;20463;-89
2021/12/06 08:32:50;;;;;;;31.83;15.80;;;3.10;99.90;;;;;;6130782;23;20351;-90
2021/12/06 08:35:16;;;;;;;29.35;15.32;;;9.10;99.90;;;;;;6155921;23;20346;-92
2021/12/06 08:37:42;;;;;;;43.15;18.23;;;9.20;99.90;;;;;;6156100;22;20100;-92
2021/12/06 08:40:09;;;;;;;39.10;19.10;;;9.40;99.90;;;;;;6156108;23;20017;-93
2021/12/06 08:46:21;;;;;;;48.13;18.67;;;6.00;99.90;;;;;;6181938;23;20050;-94
2021/12/06 08:48:49;;;;;;;51.17;21.20;;;7.80;99.90;;;;;;6155925;23;20024;-92
2021/12/06 08:51:19;;;;;;;43.70;18.02;;;3.60;99.90;;;;;;6155819;23;20021;-91
2021/12/06 08:53:49;;;;;;;38.65;17.00;;;3.00;99.90;;;;;;6156461;22;20402;-95
2021/12/06 08:59:10;;;;;;;36.25;18.73;;;8.80;99.90;;;;;;6180683;23;20454;-93
2021/12/06 09:01:37;;;;;;;53.08;20.55;;;3.90;99.90;;;;;;6155517;22;20024;-92
2021/12/06 09:04:08;;;;;;;43.53;19.90;;;5.40;99.90;;;;;;6153618;23;20028;-92
2021/12/06 09:06:35;;;;;;;39.60;17.48;;;10.30;99.90;;;;;;6156319;23;20013;-93
2021/12/06 09:09:28;;;;;;;45.10;18.77;;;9.30;99.90;;;;;;6156012;23;20351;-93
2021/12/06 09:16:12;;;;;;;;;;;;;;;;;;;;;
2021/12/06 09:19:51;;;;;;;50.30;18.33;;;3.40;99.90;;;;;;6155295;22;20110;-94
2021/12/06 09:22:05;;;;;;;48.75;19.90;;;4.30;99.90;;;;;;6160415;23;20063;-95
2021/12/06 09:24:33;;;;;;;47.10;18.83;;;6.20;99.90;;;;;;6154712;23;20479;-92
2021/12/06 09:27:28;;;;;;;;;;;;;;;;;;;;;
2021/12/06 09:30:06;;;;;;;43.05;18.05;;;7.30;99.90;;;;;;6156405;23;20017;-94
2021/12/06 09:32:32;;;;;;;46.17;19.90;;;4.10;99.90;;;;;;6175611;23;20353;-90
2021/12/06 09:34:59;;;;;;;43.22;18.67;;;6.30;99.90;;;;;;6154419;23;20035;-89
2021/12/06 09:37:25;;;;;;;57.13;21.42;;;5.50;99.90;;;;;;6180271;23;20023;-89
2021/12/06 09:40:00;;;;;;;52.60;19.80;;;8.70;99.90;;;;;;6181302;23;20039;-94
2021/12/06 09:43:11;;;;;;;58.42;22.02;;;4.60;99.90;;;;;;6183013;23;20074;-93
2021/12/06 09:45:41;;;;;;;53.90;20.92;;;2.70;99.90;;;;;;6142584;23;20017;-95
2021/12/06 09:48:34;;;;;;;46.05;19.10;;;9.60;99.90;;;;;;6180972;23;20078;-94
2021/12/06 09:51:11;;;;;;;47.25;20.48;;;7.30;99.90;;;;;;6176104;23;20077;-92
2021/12/06 09:53:40;;;;;;;47.40;19.55;;;5.20;99.90;;;;;;6179958;23;20021;-91
2021/12/06 09:56:13;;;;;;;46.38;17.75;;;10.20;99.90;;;;;;6180498;23;20365;-91
2021/12/06 09:58:39;;;;;;;39.45;17.80;;;9.80;99.90;;;;;;6180409;23;20017;-93
2021/12/06 10:01:25;;;;;;;47.40;20.02;;;10.20;99.90;;;;;;6180153;23;20013;-92
2021/12/06 10:07:01;;;;;;;33.75;14.90;;;8.10;99.90;;;;;;6213947;23;20430;-90
2021/12/06 10:09:28;;;;;;;45.30;20.23;;;7.30;99.90;;;;;;6181168;23;20039;-92
2021/12/06 10:12:22;;;;;;;43.58;20.95;;;8.90;99.90;;;;;;6180787;23;20031;-95
2021/12/06 10:14:49;;;;;;;39.65;17.30;;;6.50;99.90;;;;;;6181165;23;20028;-92
2021/12/06 10:17:17;;;;;;;44.85;19.88;;;9.60;99.90;;;;;;6179841;23;20021;-89
2021/12/06 10:19:47;;;;;;;40.60;17.08;;;6.40;99.90;;;;;;6179870;23;20024;-94
2021/12/06 10:22:15;;;;;;;46.20;18.00;;;10.00;99.90;;;;;;6180180;23;20017;-89
2021/12/06 10:24:48;;;;;;;45.70;20.60;;;5.00;99.90;;;;;;6179669;23;20024;-88
2021/12/06 10:39:35;;;;;;;44.10;21.88;;;3.30;99.90;;;;;;6126551;22;20037;-91
2021/12/06 10:42:04;;;;;;;52.63;24.67;;;3.70;99.90;;;;;;6091301;23;20021;-89
2021/12/06 10:44:29;;;;;;;42.47;23.50;;;5.20;99.90;;;;;;6183990;22;20020;-94
2021/12/06 10:46:58;;;;;;;44.80;22.05;;;10.70;99.90;;;;;;6184980;23;20099;-91
2021/12/06 11:00:58;;;;;;;49.40;22.20;;;8.50;99.90;;;;;;6243277;23;20026;-92
2021/12/06 11:03:33;;;;;;;59.72;23.80;;;3.80;99.90;;;;;;6186423;23;20020;-93
2021/12/06 11:06:08;;;;;;;53.63;25.10;;;3.60;99.90;;;;;;6186088;22;20104;-93
2021/12/06 11:08:35;;;;;;;53.13;22.05;;;3.70;99.90;;;;;;6185551;22;20020;-90
2021/12/06 11:11:06;;;;;;;46.45;22.35;;;4.00;99.90;;;;;;6184836;22;20016;-91
2021/12/06 11:13:36;;;;;;;43.17;18.67;;;8.10;99.90;;;;;;6184720;23;20017;-89
2021/12/06 11:16:19;;;;;;;53.38;22.35;;;7.80;99.90;;;;;;6185019;22;20028;-92
2021/12/06 11:19:29;;;;;;;;;;;;;;;;;;;;;
2021/12/06 11:21:58;;;;;;;44.92;19.90;;;5.20;99.90;;;;;;6185859;22;20013;-90
2021/12/06 11:24:37;;;;;;;44.22;20.38;;;4.30;99.90;;;;;;6184759;23;20021;-87
2021/12/06 11:27:05;;;;;;;38.55;18.23;;;3.20;99.90;;;;;;6185689;22;20095;-90
2021/12/06 11:29:36;;;;;;;50.80;21.35;;;3.90;99.90;;;;;;6185201;22;20077;-90
2021/12/06 11:32:06;;;;;;;51.63;21.20;;;4.10;99.90;;;;;;6290675;22;20020;-90
2021/12/06 11:34:42;;;;;;;48.38;21.35;;;6.30;99.90;;;;;;6159607;23;20017;-96
2021/12/06 11:37:18;;;;;;;54.53;20.20;;;4.30;99.90;;;;;;6185505;22;20168;-92
2021/12/06 11:39:47;;;;;;;48.63;21.80;;;9.20;99.90;;;;;;6178747;23;20422;-91
2021/12/06 11:42:13;;;;;;;41.10;19.33;;;5.00;99.90;;;;;;6154981;23;20017;-93
2021/12/06 11:44:42;;;;;;;43.95;20.40;;;6.10;99.90;;;;;;6180533;23;20078;-94
2021/12/06 11:47:12;;;;;;;58.45;22.63;;;5.10;99.90;;;;;;6177866;23;20099;-90
2021/12/06 11:50:00;;;;;;;;;;;;;;;;;;;;;
2021/12/06 11:52:34;;;;;;;41.67;20.92;;;7.60;99.90;;;;;;6283872;22;20052;-92
2021/12/06 11:55:12;;;;;;;46.65;22.50;;;3.80;99.90;;;;;;6290925;22;20347;-93
2021/12/06 11:57:44;;;;;;;45.90;21.67;;;8.10;99.90;;;;;;6312299;22;20019;-93
2021/12/06 12:00:19;;;;;;;48.13;19.98;;;8.50;99.90;;;;;;6312895;22;20054;-86
2021/12/06 12:02:50;;;;;;;49.67;21.38;;;9.90;99.90;;;;;;6310242;22;20398;-88
2021/12/06 12:05:19;;;;;;;53.30;24.05;;;5.60;99.90;;;;;;6311766;22;20344;-92
2021/12/06 12:08:06;;;;;;;59.40;24.92;;;7.60;99.90;;;;;;6311866;22;20022;-94
2021/12/06 12:10:35;;;;;;;40.80;20.55;;;8.30;99.90;;;;;;6285167;22;20021;-91
2021/12/06 12:13:02;;;;;;;36.72;18.85;;;8.70;99.90;;;;;;6294134;22;20013;-94
2021/12/06 12:15:36;;;;;;;42.25;20.95;;;8.40;99.90;;;;;;6311657;22;20011;-94
2021/12/06 12:18:06;;;;;;;44.28;20.67;;;5.50;99.90;;;;;;6310949;22;20011;-96
2021/12/06 12:20:36;;;;;;;45.30;21.85;;;6.30;99.90;;;;;;6311503;22;20507;-92
2021/12/06 12:23:08;;;;;;;47.97;24.88;;;7.40;99.90;;;;;;6311324;22;20084;-92
2021/12/06 12:25:38;;;;;;;38.55;19.52;;;7.90;99.90;;;;;;6310393;22;20015;-88
2021/12/06 12:28:17;;;;;;;37.13;16.90;;;8.00;99.90;;;;;;6309947;22;20308;-90
2021/12/06 12:30:45;;;;;;;37.05;21.52;;;6.10;99.90;;;;;;6310442;22;20022;-91
2021/12/06 12:33:17;;;;;;;39.92;21.98;;;5.70;99.90;;;;;;6310378;22;20015;-88
2021/12/06 12:36:03;;;;;;;33.08;16.92;;;4.50;99.90;;;;;;6308717;22;20022;-91
2021/12/06 12:38:30;;;;;;;37.03;19.17;;;6.40;99.90;;;;;;6284899;22;20338;-91
2021/12/06 12:41:02;;;;;;;44.80;21.10;;;4.80;99.90;;;;;;6287733;22;20100;-95
2021/12/06 12:43:38;;;;;;;46.45;19.17;;;5.00;99.90;;;;;;6310626;22;20014;-88
2021/12/06 12:46:09;;;;;;;38.28;19.83;;;4.30;99.90;;;;;;6310408;22;20045;-88
2021/12/06 12:48:46;;;;;;;45.30;22.83;;;7.80;99.90;;;;;;6309841;22;20431;-93
2021/12/06 12:51:23;;;;;;;71.32;29.10;;;6.20;99.90;;;;;;6285236;22;20019;-92
2021/12/06 12:53:55;;;;;;;47.83;23.55;;;7.40;99.90;;;;;;6310631;22;20029;-94
2021/12/06 12:56:26;;;;;;;50.75;24.90;;;4.00;99.90;;;;;;6286479;22;20019;-95
2021/12/06 12:58:56;;;;;;;70.60;30.95;;;8.70;99.90;;;;;;6311921;22;20072;-89
2021/12/06 13:01:59;;;;;;;48.67;21.95;;;9.00;99.90;;;;;;6314682;22;20018;-94
2021/12/06 13:04:25;;;;;;;58.30;22.15;;;7.40;99.90;;;;;;6285828;22;20014;-92
2021/12/06 13:06:52;;;;;;;47.95;21.02;;;5.40;99.90;;;;;;6310934;22;20015;-93
2021/12/06 13:09:20;;;;;;;59.67;26.05;;;7.40;99.90;;;;;;6311142;22;20015;-92
2021/12/06 13:11:56;;;;;;;56.97;27.55;;;4.70;99.90;;;;;;6284852;22;20018;-94
2021/12/06 13:14:35;;;;;;;59.47;26.42;;;6.10;99.90;;;;;;6280074;22;20391;-96
2021/12/06 13:17:07;;;;;;;63.58;27.88;;;6.60;99.90;;;;;;6306550;22;20014;-89
2021/12/06 13:19:47;;;;;;;59.70;23.88;;;8.20;99.90;;;;;;6206623;22;20433;-92
2021/12/06 13:22:19;;;;;;;41.38;21.67;;;8.00;99.90;;;;;;6309980;22;20014;-94
2021/12/06 13:24:56;;;;;;;50.78;23.70;;;7.90;99.90;;;;;;6310231;22;20015;-93
2021/12/06 13:27:29;;;;;;;51.25;23.20;;;8.30;99.90;;;;;;6309891;22;20014;-92
2021/12/06 13:30:04;;;;;;;60.28;28.25;;;8.50;99.90;;;;;;6309651;22;20014;-93
2021/12/06 13:32:40;;;;;;;49.25;24.55;;;5.20;99.90;;;;;;6284552;22;20015;-92
2021/12/06 13:35:24;;;;;;;55.92;25.48;;;8.60;99.90;;;;;;6311127;22;20022;-92
2021/12/06 13:41:59;;;;;;;52.85;25.45;;;8.30;99.90;;;;;;6307224;22;20506;-92
2021/12/06 13:44:47;;;;;;;46.83;26.55;;;4.70;99.90;;;;;;6305496;22;20492;-94
2021/12/06 13:48:07;;;;;;;59.42;26.83;;;8.70;99.90;;;;;;6281121;22;20019;-95